Time;durP1;ratioP1;P1;durP2;ratioP2;P2;SDS_P1;SDS_P2;PMS_P1;PMS_P2;Temp;Humidity;BMP_temperature;BMP_pressure;BME280_temperature;BME280_humidity;BME280_pressure;Samples;Min_cycle;Max_cycle;Signal;HPM_P1;HPM_P2
2022/11/17 00:01:58;;;;;;;25.58;19.40;;;8.60;99.90;;;;;;5062749;28;20047;-51
2022/11/17 00:04:25;;;;;;;21.38;17.58;;;8.60;99.90;;;;;;5054533;28;20394;-53
2022/11/17 00:06:51;;;;;;;22.50;14.45;;;8.60;99.90;;;;;;5062803;28;20482;-52
2022/11/17 00:09:17;;;;;;;22.48;15.55;;;8.60;99.90;;;;;;5064805;28;20486;-54
2022/11/17 00:14:35;;;;;;;21.33;18.65;;;8.70;99.90;;;;;;5064063;28;20073;-53
2022/11/17 00:17:06;;;;;;;23.00;18.58;;;8.70;99.90;;;;;;5056632;28;20045;-55
2022/11/17 00:22:16;;;;;;;22.60;18.80;;;8.70;99.90;;;;;;5054236;28;20375;-53
2022/11/17 00:24:42;;;;;;;22.48;16.42;;;8.70;99.90;;;;;;5051675;28;20059;-52
2022/11/17 00:27:07;;;;;;;25.48;18.42;;;8.70;99.90;;;;;;5057271;28;20033;-52
2022/11/17 00:29:33;;;;;;;23.15;17.13;;;8.70;99.90;;;;;;5052502;28;20074;-55
2022/11/17 00:34:43;;;;;;;20.25;17.20;;;8.70;99.90;;;;;;5056585;28;20049;-55
2022/11/17 00:37:10;;;;;;;24.23;16.50;;;8.70;99.90;;;;;;5061876;28;20043;-53
2022/11/17 00:39:36;;;;;;;15.88;12.00;;;8.70;99.90;;;;;;5059081;28;20799;-53
2022/11/17 00:42:02;;;;;;;20.02;16.20;;;8.70;99.90;;;;;;5057585;28;20036;-51
2022/11/17 00:44:29;;;;;;;20.80;17.65;;;8.80;99.90;;;;;;5040084;28;20064;-53
2022/11/17 00:46:54;;;;;;;19.38;14.10;;;8.90;99.90;;;;;;5056798;28;20047;-51
2022/11/17 00:49:23;;;;;;;20.35;15.38;;;8.80;99.90;;;;;;5038038;28;20037;-54
2022/11/17 00:51:50;;;;;;;20.73;17.05;;;8.80;99.90;;;;;;5057621;28;20532;-51
2022/11/17 00:54:16;;;;;;;18.98;15.85;;;8.80;99.90;;;;;;5060898;28;20044;-54
2022/11/17 00:56:42;;;;;;;22.77;17.45;;;8.80;99.90;;;;;;5064794;28;20036;-53
2022/11/17 00:59:07;;;;;;;19.45;15.98;;;8.80;99.90;;;;;;5044538;28;20127;-53
2022/11/17 01:01:33;;;;;;;20.58;14.65;;;8.80;99.90;;;;;;5069990;28;20041;-52
2022/11/17 01:04:03;;;;;;;17.38;12.25;;;8.80;99.90;;;;;;5064425;28;20080;-53
2022/11/17 01:06:40;;;;;;;20.52;15.63;;;8.80;99.90;;;;;;5053619;28;20045;-54
2022/11/17 01:09:11;;;;;;;19.10;16.25;;;8.80;99.90;;;;;;5054280;28;20041;-53
2022/11/17 01:11:36;;;;;;;21.67;16.30;;;8.80;99.90;;;;;;5060963;28;20102;-54
2022/11/17 01:14:02;;;;;;;16.30;13.45;;;8.80;99.90;;;;;;5060239;28;20041;-54
2022/11/17 01:16:29;;;;;;;19.85;15.68;;;8.80;99.90;;;;;;5060205;28;20348;-52
2022/11/17 01:18:58;;;;;;;17.20;14.05;;;8.80;99.90;;;;;;5063617;28;20036;-53
2022/11/17 01:21:26;;;;;;;20.13;15.80;;;8.80;99.90;;;;;;5066179;28;20055;-54
2022/11/17 01:23:53;;;;;;;20.00;15.85;;;8.80;99.90;;;;;;5059127;28;20049;-54
2022/11/17 01:26:24;;;;;;;16.02;12.13;;;8.80;99.90;;;;;;5059496;28;20131;-54
2022/11/17 01:28:51;;;;;;;19.38;15.15;;;8.80;99.90;;;;;;5058257;28;20052;-52
2022/11/17 01:31:22;;;;;;;20.60;14.95;;;8.80;99.90;;;;;;5062506;28;20032;-55
2022/11/17 01:33:49;;;;;;;18.90;14.32;;;8.80;99.90;;;;;;5061375;28;20109;-54
2022/11/17 01:36:20;;;;;;;19.08;13.75;;;8.80;99.90;;;;;;5058681;28;20398;-51
2022/11/17 01:38:46;;;;;;;14.90;12.60;;;8.80;99.90;;;;;;5059129;28;20068;-54
2022/11/17 01:41:21;;;;;;;18.45;13.43;;;8.90;99.90;;;;;;5058887;28;20641;-54
2022/11/17 01:43:52;;;;;;;18.13;14.38;;;8.80;99.90;;;;;;5053187;28;20400;-53
2022/11/17 01:46:31;;;;;;;18.70;14.20;;;8.80;99.90;;;;;;5060140;28;20044;-55
2022/11/17 01:49:09;;;;;;;17.73;13.88;;;8.80;99.90;;;;;;5057580;28;20033;-55
2022/11/17 01:51:39;;;;;;;16.38;14.02;;;8.80;99.90;;;;;;5057740;28;20383;-54
2022/11/17 01:54:06;;;;;;;15.55;12.73;;;8.80;99.90;;;;;;5065067;28;20045;-52
2022/11/17 01:56:38;;;;;;;19.05;15.23;;;8.80;99.90;;;;;;5061692;28;20037;-50
2022/11/17 01:59:20;;;;;;;19.33;15.88;;;8.80;99.90;;;;;;5065772;28;20052;-55
2022/11/17 02:01:55;;;;;;;21.08;15.73;;;8.80;99.90;;;;;;5059751;28;20115;-54
2022/11/17 02:04:28;;;;;;;22.02;15.98;;;8.80;99.90;;;;;;5068739;28;20536;-53
2022/11/17 02:07:15;;;;;;;19.38;15.48;;;8.70;99.90;;;;;;5063610;28;20501;-54
2022/11/17 02:09:42;;;;;;;18.83;14.40;;;8.70;99.90;;;;;;5043780;28;20044;-52
2022/11/17 02:12:11;;;;;;;15.70;12.00;;;8.60;99.90;;;;;;5061767;28;20044;-55
2022/11/17 02:14:37;;;;;;;18.83;14.45;;;8.60;99.90;;;;;;5061598;28;20044;-55
2022/11/17 02:17:04;;;;;;;20.10;15.15;;;8.60;99.90;;;;;;5059218;28;20132;-55
2022/11/17 02:19:36;;;;;;;19.10;15.35;;;8.60;99.90;;;;;;5063149;28;20075;-50
2022/11/17 02:22:32;;;;;;;20.67;16.42;;;8.60;99.90;;;;;;5066071;28;20048;-54
2022/11/17 02:25:21;;;;;;;19.17;15.05;;;8.60;99.90;;;;;;5041691;28;20160;-51
2022/11/17 02:28:24;;;;;;;19.48;15.38;;;8.60;99.90;;;;;;5053252;28;20497;-55
2022/11/17 02:31:25;;;;;;;21.17;16.00;;;8.60;99.90;;;;;;5036360;28;20466;-53
2022/11/17 02:34:14;;;;;;;20.38;15.85;;;8.50;99.90;;;;;;5053309;28;20040;-55
2022/11/17 02:37:02;;;;;;;18.77;12.65;;;8.50;99.90;;;;;;5056275;28;20147;-55
2022/11/17 02:39:27;;;;;;;21.20;15.73;;;8.50;99.90;;;;;;5054882;28;20044;-55
2022/11/17 02:42:10;;;;;;;21.90;16.33;;;8.50;99.90;;;;;;5057049;28;20462;-55
2022/11/17 02:44:53;;;;;;;21.33;15.68;;;8.50;99.90;;;;;;5057726;28;20051;-54
2022/11/17 02:47:27;;;;;;;20.05;16.88;;;8.50;99.90;;;;;;5056580;28;20182;-52
2022/11/17 02:50:01;;;;;;;18.90;14.93;;;8.50;99.90;;;;;;5053110;28;20375;-53
2022/11/17 02:52:28;;;;;;;21.77;16.88;;;8.50;99.90;;;;;;5056938;28;20147;-51
2022/11/17 02:55:08;;;;;;;21.40;14.20;;;8.50;99.90;;;;;;5037566;28;21402;-53
2022/11/17 02:57:36;;;;;;;19.20;12.93;;;8.40;99.90;;;;;;5054081;28;20068;-53
2022/11/17 03:00:10;;;;;;;19.13;15.40;;;8.40;99.90;;;;;;5025516;28;20123;-52
2022/11/17 03:03:04;;;;;;;22.27;16.13;;;8.50;99.90;;;;;;5054145;28;20048;-50
2022/11/17 03:05:41;;;;;;;20.17;14.50;;;8.50;99.90;;;;;;5058096;28;20045;-51
2022/11/17 03:08:37;;;;;;;19.70;13.00;;;8.40;99.90;;;;;;5044575;28;20135;-50
2022/11/17 03:11:07;;;;;;;19.58;14.52;;;8.40;99.90;;;;;;5059954;28;20048;-51
2022/11/17 03:13:48;;;;;;;21.30;16.55;;;8.40;99.90;;;;;;5042985;28;20044;-53
2022/11/17 03:16:56;;;;;;;29.17;17.42;;;8.40;99.90;;;;;;5063334;28;20041;-53
2022/11/17 03:19:31;;;;;;;24.90;16.35;;;8.40;99.90;;;;;;5063737;28;20049;-51
2022/11/17 03:22:03;;;;;;;19.90;14.02;;;8.30;99.90;;;;;;5047893;28;20044;-52
2022/11/17 03:24:34;;;;;;;22.80;16.98;;;8.30;99.90;;;;;;5061879;28;20059;-52
2022/11/17 03:27:07;;;;;;;22.95;16.92;;;8.30;99.90;;;;;;5065899;28;20136;-52
2022/11/17 03:29:36;;;;;;;20.00;13.70;;;8.30;99.90;;;;;;5064841;28;20177;-54
2022/11/17 03:32:06;;;;;;;23.65;16.95;;;8.30;99.90;;;;;;5065826;28;20079;-55
2022/11/17 03:34:36;;;;;;;26.85;17.20;;;8.30;99.90;;;;;;5065517;28;20045;-51
2022/11/17 03:37:05;;;;;;;22.25;15.75;;;8.20;99.90;;;;;;5064277;28;20044;-54
2022/11/17 03:39:33;;;;;;;23.00;17.10;;;8.30;99.90;;;;;;5065333;28;20045;-55
2022/11/17 03:42:04;;;;;;;23.65;16.17;;;8.30;99.90;;;;;;5061057;28;20044;-55
2022/11/17 03:44:33;;;;;;;20.55;14.30;;;8.30;99.90;;;;;;5069308;28;20040;-54
2022/11/17 03:47:01;;;;;;;24.50;16.92;;;8.30;99.90;;;;;;5056987;28;20048;-54
2022/11/17 03:49:36;;;;;;;23.55;17.25;;;8.30;99.90;;;;;;5054571;28;20048;-54
2022/11/17 03:52:02;;;;;;;23.65;16.23;;;8.30;99.90;;;;;;5053797;28;21049;-53
2022/11/17 03:54:28;;;;;;;21.08;15.38;;;8.20;99.90;;;;;;5057828;28;20055;-55
2022/11/17 03:57:43;;;;;;;15.93;12.98;;;8.30;99.90;;;;;;5057193;28;20041;-55
2022/11/17 04:00:11;;;;;;;20.85;14.55;;;8.30;99.90;;;;;;5005501;28;20102;-51
2022/11/17 04:02:41;;;;;;;22.02;15.00;;;8.30;99.90;;;;;;5055770;28;21212;-54
2022/11/17 04:05:07;;;;;;;21.20;15.25;;;8.30;99.90;;;;;;5058498;28;20086;-53
2022/11/17 04:07:41;;;;;;;21.33;16.17;;;8.30;99.90;;;;;;5053822;28;20036;-51
2022/11/17 04:10:10;;;;;;;16.48;14.10;;;8.30;99.90;;;;;;5054938;28;20098;-51
2022/11/17 04:18:05;;;;;;;20.20;15.82;;;8.20;99.90;;;;;;5051453;28;20041;-51
2022/11/17 04:20:37;;;;;;;20.13;14.18;;;8.30;99.90;;;;;;5052104;28;20411;-56
2022/11/17 04:23:08;;;;;;;15.30;12.98;;;8.30;99.90;;;;;;5057457;28;20529;-51
2022/11/17 04:28:35;;;;;;;19.60;13.25;;;8.30;99.90;;;;;;5055692;28;20139;-55
2022/11/17 04:31:25;;;;;;;13.73;12.15;;;8.20;99.90;;;;;;5049067;28;20103;-54
2022/11/17 04:33:56;;;;;;;18.58;13.35;;;8.20;99.90;;;;;;5051470;28;20040;-51
2022/11/17 04:36:24;;;;;;;17.38;13.75;;;8.10;99.90;;;;;;5055146;28;20044;-55
2022/11/17 04:38:52;;;;;;;12.00;10.57;;;8.20;99.90;;;;;;5038277;28;20512;-53
2022/11/17 04:44:05;;;;;;;16.23;12.63;;;8.20;99.90;;;;;;5056632;28;20044;-55
2022/11/17 04:46:33;;;;;;;17.05;13.63;;;8.10;99.90;;;;;;5055577;28;20052;-54
2022/11/17 04:48:59;;;;;;;16.70;13.23;;;8.20;99.90;;;;;;5052623;28;20047;-55
2022/11/17 04:51:26;;;;;;;17.23;13.70;;;8.20;99.90;;;;;;5059779;28;20374;-53
2022/11/17 04:53:52;;;;;;;14.50;11.95;;;8.10;99.90;;;;;;5057300;28;20037;-54
2022/11/17 04:56:18;;;;;;;10.63;9.40;;;8.10;99.90;;;;;;5062827;28;20059;-52
2022/11/17 04:58:45;;;;;;;13.18;11.18;;;8.20;99.90;;;;;;5054679;28;20037;-56
2022/11/17 05:01:14;;;;;;;13.90;11.90;;;8.10;99.90;;;;;;5060639;28;20033;-55
2022/11/17 05:03:54;;;;;;;15.23;12.10;;;8.10;99.90;;;;;;5055532;28;20044;-56
2022/11/17 05:06:35;;;;;;;10.63;8.50;;;8.00;99.90;;;;;;5035294;28;20052;-54
2022/11/17 05:09:04;;;;;;;11.57;9.98;;;8.00;99.90;;;;;;5060309;28;20036;-55
2022/11/17 05:14:17;;;;;;;14.43;11.57;;;8.00;99.90;;;;;;5059497;28;20048;-55
2022/11/17 05:19:28;;;;;;;12.23;10.98;;;7.90;99.90;;;;;;5057367;28;20044;-54
2022/11/17 05:21:55;;;;;;;10.63;9.55;;;7.90;99.90;;;;;;5040244;28;20409;-53
2022/11/17 05:24:21;;;;;;;12.07;10.73;;;7.90;99.90;;;;;;5057686;28;20075;-56
2022/11/17 05:26:48;;;;;;;9.95;8.95;;;7.80;99.90;;;;;;5064002;28;20036;-52
2022/11/17 05:29:16;;;;;;;12.13;10.50;;;7.80;99.90;;;;;;5061684;28;20127;-55
2022/11/17 05:31:42;;;;;;;11.50;9.30;;;7.80;99.90;;;;;;5063008;28;20041;-52
2022/11/17 05:34:11;;;;;;;12.77;10.38;;;7.70;99.90;;;;;;5064376;28;20078;-53
2022/11/17 05:36:37;;;;;;;13.75;10.23;;;7.70;99.90;;;;;;5063005;28;20135;-57
2022/11/17 05:39:03;;;;;;;9.70;8.43;;;7.70;99.90;;;;;;5042867;28;20045;-55
2022/11/17 05:41:29;;;;;;;10.73;9.63;;;7.70;99.90;;;;;;5063971;28;20052;-52
2022/11/17 05:43:55;;;;;;;9.10;8.23;;;7.60;99.90;;;;;;5062582;28;20037;-53
2022/11/17 05:46:21;;;;;;;9.77;8.77;;;7.60;99.90;;;;;;5060454;28;20680;-54
2022/11/17 05:48:51;;;;;;;8.55;7.53;;;7.60;99.90;;;;;;5053815;28;20036;-54
2022/11/17 05:51:19;;;;;;;11.10;10.00;;;7.60;99.90;;;;;;5054478;28;20124;-56
2022/11/17 05:53:45;;;;;;;11.35;10.20;;;7.50;99.90;;;;;;5053706;28;20915;-54
2022/11/17 05:56:31;;;;;;;5.60;5.10;;;7.50;99.90;;;;;;5052163;28;20511;-54
2022/11/17 05:59:17;;;;;;;9.65;8.68;;;7.50;99.90;;;;;;5054626;28;20047;-53
2022/11/17 06:01:48;;;;;;;9.70;8.75;;;7.50;99.90;;;;;;5051657;28;20127;-52
2022/11/17 06:04:17;;;;;;;10.20;9.18;;;7.50;99.90;;;;;;5051320;28;20060;-55
2022/11/17 06:06:45;;;;;;;11.90;10.25;;;7.50;99.90;;;;;;5054676;28;20055;-50
2022/11/17 06:09:11;;;;;;;10.80;9.77;;;7.60;99.90;;;;;;5057120;28;20079;-54
2022/11/17 06:11:36;;;;;;;10.60;9.50;;;7.50;99.90;;;;;;5067792;28;20055;-53
2022/11/17 06:14:02;;;;;;;10.10;9.10;;;7.50;99.90;;;;;;5058509;28;20037;-52
2022/11/17 06:16:31;;;;;;;8.48;7.68;;;7.60;99.90;;;;;;5055835;28;20482;-53
2022/11/17 06:19:05;;;;;;;10.68;9.57;;;7.60;99.90;;;;;;5056547;28;20114;-52
2022/11/17 06:21:32;;;;;;;8.27;7.47;;;7.50;99.90;;;;;;5053583;28;20063;-50
2022/11/17 06:23:59;;;;;;;8.82;7.93;;;7.60;99.90;;;;;;5057253;28;20434;-51
2022/11/17 06:26:24;;;;;;;8.93;7.85;;;7.50;99.90;;;;;;5055964;28;20048;-52
2022/11/17 06:28:51;;;;;;;9.88;8.10;;;7.50;99.90;;;;;;5055665;28;20044;-55
2022/11/17 06:31:17;;;;;;;7.40;6.15;;;7.60;99.90;;;;;;5050740;28;20505;-54
2022/11/17 06:33:44;;;;;;;9.63;8.70;;;7.60;99.90;;;;;;5050799;28;20486;-51
2022/11/17 06:36:10;;;;;;;9.90;8.63;;;7.50;99.90;;;;;;5053151;28;20047;-56
2022/11/17 06:38:35;;;;;;;9.45;8.55;;;7.50;99.90;;;;;;5053756;28;20413;-54
2022/11/17 06:41:05;;;;;;;10.07;9.07;;;7.50;99.90;;;;;;5055843;28;20041;-54
2022/11/17 06:43:31;;;;;;;9.25;8.35;;;7.50;99.90;;;;;;5059614;28;20044;-54
2022/11/17 06:46:01;;;;;;;7.55;6.82;;;7.60;99.90;;;;;;5057516;28;20132;-57
2022/11/17 06:48:26;;;;;;;6.65;5.95;;;7.50;99.90;;;;;;5058943;28;20501;-55
2022/11/17 06:50:53;;;;;;;8.80;8.05;;;7.60;99.90;;;;;;5058664;28;20055;-52
2022/11/17 06:53:21;;;;;;;8.15;7.35;;;7.50;99.90;;;;;;5058857;28;20045;-55
2022/11/17 06:58:32;;;;;;;8.13;7.35;;;7.50;99.90;;;;;;5061021;28;20052;-51
2022/11/17 07:01:07;;;;;;;8.88;8.05;;;7.50;99.90;;;;;;5041256;28;20604;-53
2022/11/17 07:03:34;;;;;;;6.40;5.80;;;7.50;99.90;;;;;;5057048;28;20095;-52
2022/11/17 07:06:01;;;;;;;9.53;8.20;;;7.50;99.90;;;;;;5055417;28;20400;-53
2022/11/17 07:08:27;;;;;;;7.72;6.93;;;7.50;99.90;;;;;;5054176;28;20717;-55
2022/11/17 07:10:56;;;;;;;8.77;7.97;;;7.50;99.90;;;;;;5058176;28;20071;-55
2022/11/17 07:13:23;;;;;;;7.18;6.47;;;7.50;99.90;;;;;;5057450;28;20036;-55
2022/11/17 07:15:50;;;;;;;10.47;9.47;;;7.50;99.90;;;;;;5055711;28;20047;-50
2022/11/17 07:18:17;;;;;;;7.03;6.03;;;7.40;99.90;;;;;;5066205;28;20298;-53
2022/11/17 07:20:43;;;;;;;10.53;9.53;;;7.50;99.90;;;;;;5061586;28;20493;-54
2022/11/17 07:23:09;;;;;;;7.80;7.03;;;7.40;99.90;;;;;;5063449;28;20051;-54
2022/11/17 07:25:34;;;;;;;9.63;7.57;;;7.50;99.90;;;;;;5063564;28;20529;-55
2022/11/17 07:28:00;;;;;;;10.60;9.07;;;7.40;99.90;;;;;;5059394;28;20040;-53
2022/11/17 07:30:26;;;;;;;10.05;8.98;;;7.50;99.90;;;;;;5060932;28;20049;-55
2022/11/17 07:32:51;;;;;;;8.10;6.43;;;7.50;99.90;;;;;;5057024;28;20072;-52
2022/11/17 07:35:18;;;;;;;9.63;8.63;;;7.50;99.90;;;;;;5060049;28;20343;-55
2022/11/17 07:37:43;;;;;;;7.15;6.45;;;7.40;99.90;;;;;;5062401;28;20053;-51
2022/11/17 07:40:10;;;;;;;9.52;8.63;;;7.40;99.90;;;;;;5060163;28;20037;-51
2022/11/17 07:42:35;;;;;;;9.95;8.95;;;7.40;99.90;;;;;;5065142;28;20379;-54
2022/11/17 07:45:01;;;;;;;9.40;8.50;;;7.40;99.90;;;;;;5064146;28;20103;-55
2022/11/17 07:47:26;;;;;;;10.05;9.10;;;7.40;99.90;;;;;;5060696;28;20033;-55
2022/11/17 07:49:52;;;;;;;7.80;6.95;;;7.40;99.90;;;;;;5061949;28;20040;-53
2022/11/17 07:52:17;;;;;;;9.95;9.05;;;7.40;99.90;;;;;;5059582;28;20429;-55
2022/11/17 07:54:43;;;;;;;9.13;8.23;;;7.40;99.90;;;;;;5056588;28;20059;-53
2022/11/17 07:57:09;;;;;;;10.70;9.70;;;7.40;99.90;;;;;;5057610;28;20155;-55
2022/11/17 07:59:34;;;;;;;9.52;8.57;;;7.40;99.90;;;;;;5059747;28;20036;-56
2022/11/17 08:02:00;;;;;;;9.52;8.20;;;7.40;99.90;;;;;;5063514;28;20389;-58
2022/11/17 08:04:25;;;;;;;9.13;7.60;;;7.40;99.90;;;;;;5061813;28;20477;-57
2022/11/17 08:06:51;;;;;;;10.75;9.75;;;7.40;99.90;;;;;;5058956;28;20060;-56
2022/11/17 08:09:16;;;;;;;12.30;10.95;;;7.40;99.90;;;;;;5059550;28;20052;-54
2022/11/17 08:11:42;;;;;;;11.90;9.13;;;7.40;99.90;;;;;;5061235;28;20041;-56
2022/11/17 08:14:08;;;;;;;10.15;9.15;;;7.40;99.90;;;;;;5051224;28;20045;-56
2022/11/17 08:16:34;;;;;;;12.02;10.82;;;7.40;99.90;;;;;;5070128;28;20042;-54
2022/11/17 08:19:00;;;;;;;9.82;8.80;;;7.50;99.90;;;;;;5069247;28;20076;-54
2022/11/17 08:21:25;;;;;;;12.57;9.45;;;7.40;99.90;;;;;;5058288;28;20053;-58
2022/11/17 08:23:55;;;;;;;9.35;8.32;;;7.40;99.90;;;;;;5058893;28;20048;-56
2022/11/17 08:26:23;;;;;;;11.10;10.00;;;7.50;99.90;;;;;;5050566;28;20387;-58
2022/11/17 08:28:49;;;;;;;12.02;10.82;;;7.50;99.90;;;;;;5053989;28;20083;-55
2022/11/17 08:31:15;;;;;;;11.07;9.80;;;7.50;99.90;;;;;;5066722;28;20068;-55
2022/11/17 08:33:40;;;;;;;9.68;8.65;;;7.50;99.90;;;;;;5057943;28;20450;-57
2022/11/17 08:36:06;;;;;;;11.60;10.50;;;7.50;99.90;;;;;;5064438;28;20059;-55
2022/11/17 08:38:32;;;;;;;11.77;10.52;;;7.60;99.90;;;;;;5060363;28;20115;-57
2022/11/17 08:41:01;;;;;;;11.73;10.02;;;7.50;99.90;;;;;;5061231;28;20068;-52
2022/11/17 08:43:26;;;;;;;11.75;9.75;;;7.60;99.90;;;;;;5069745;28;20089;-52
2022/11/17 08:45:52;;;;;;;10.75;9.65;;;7.60;99.90;;;;;;5071391;28;20036;-53
2022/11/17 08:48:18;;;;;;;10.55;9.45;;;7.70;99.90;;;;;;5063523;28;20118;-53
2022/11/17 08:50:43;;;;;;;9.85;8.85;;;7.60;99.90;;;;;;5067381;28;20565;-56
2022/11/17 08:53:16;;;;;;;11.30;9.98;;;7.60;99.90;;;;;;5068127;28;20045;-57
2022/11/17 08:55:42;;;;;;;13.02;10.25;;;7.60;99.90;;;;;;5061646;28;20068;-57
2022/11/17 08:58:09;;;;;;;13.43;10.90;;;7.70;99.90;;;;;;5066505;28;20041;-56
2022/11/17 09:00:35;;;;;;;13.77;10.43;;;7.70;99.90;;;;;;5055501;28;20041;-54
2022/11/17 09:03:05;;;;;;;11.50;9.55;;;7.80;99.90;;;;;;5058849;28;20043;-56
2022/11/17 09:05:31;;;;;;;12.70;10.20;;;7.70;99.90;;;;;;5053276;28;20040;-53
2022/11/17 09:07:58;;;;;;;12.70;11.13;;;7.70;99.90;;;;;;5059092;28;20068;-57
2022/11/17 09:10:23;;;;;;;11.32;10.18;;;7.70;99.90;;;;;;5065682;28;20045;-56
2022/11/17 09:12:53;;;;;;;11.75;10.02;;;7.70;99.90;;;;;;5069342;28;21320;-56
2022/11/17 09:15:18;;;;;;;11.18;9.38;;;7.70;99.90;;;;;;5060556;28;20041;-55
2022/11/17 09:17:46;;;;;;;12.20;10.93;;;7.80;99.90;;;;;;5061256;28;20394;-54
2022/11/17 09:20:12;;;;;;;12.20;10.63;;;8.00;99.90;;;;;;5069449;28;20052;-57
2022/11/17 09:22:38;;;;;;;13.73;10.65;;;7.80;99.90;;;;;;5065454;28;20074;-56
2022/11/17 09:25:04;;;;;;;14.55;11.80;;;8.10;99.90;;;;;;5052995;28;20037;-56
2022/11/17 09:27:30;;;;;;;13.90;10.68;;;8.10;99.90;;;;;;5067570;28;20086;-53
2022/11/17 09:29:55;;;;;;;13.27;10.80;;;7.70;99.90;;;;;;5069028;28;20041;-56
2022/11/17 09:32:21;;;;;;;12.77;11.07;;;7.80;99.90;;;;;;5051741;28;20055;-54
2022/11/17 09:34:47;;;;;;;12.13;10.50;;;7.80;99.90;;;;;;5064276;28;20432;-55
2022/11/17 09:37:12;;;;;;;11.70;10.50;;;7.80;99.90;;;;;;5062521;28;20068;-55
2022/11/17 09:39:38;;;;;;;12.95;10.38;;;7.90;99.90;;;;;;5071534;28;20036;-55
2022/11/17 09:42:04;;;;;;;13.00;10.50;;;7.90;99.90;;;;;;5074105;28;20089;-53
2022/11/17 09:44:40;;;;;;;11.63;10.43;;;7.90;99.90;;;;;;5067773;28;20540;-56
2022/11/17 09:47:18;;;;;;;11.60;10.38;;;7.90;99.90;;;;;;5068726;28;20123;-54
2022/11/17 09:50:12;;;;;;;11.50;9.80;;;7.90;99.90;;;;;;5060630;28;20088;-52
2022/11/17 09:53:02;;;;;;;11.63;9.52;;;7.90;99.90;;;;;;5063776;28;20040;-56
2022/11/17 09:55:36;;;;;;;10.85;8.40;;;8.00;99.90;;;;;;5065757;28;20049;-56
2022/11/17 09:58:28;;;;;;;8.68;7.47;;;7.90;99.90;;;;;;5071010;28;20040;-53
2022/11/17 10:00:55;;;;;;;9.90;8.90;;;8.00;99.90;;;;;;5065834;28;20041;-55
2022/11/17 10:03:30;;;;;;;14.65;10.98;;;8.10;99.90;;;;;;5073866;28;20040;-57
2022/11/17 10:05:58;;;;;;;13.35;10.90;;;8.00;99.90;;;;;;5068591;28;20037;-55
2022/11/17 10:08:37;;;;;;;14.35;11.40;;;8.20;99.90;;;;;;5075356;28;20033;-54
2022/11/17 10:11:30;;;;;;;12.82;11.15;;;8.20;99.90;;;;;;5066823;28;20048;-52
2022/11/17 10:13:53;;;;;;;15.02;10.98;;;8.20;99.90;;;;;;5071144;28;20041;-55
2022/11/17 10:16:19;;;;;;;14.98;11.00;;;8.20;99.90;;;;;;5064026;28;20045;-54
2022/11/17 10:18:44;;;;;;;15.50;11.40;;;8.30;99.90;;;;;;5062558;28;20048;-53
2022/11/17 10:21:10;;;;;;;11.90;9.63;;;8.40;99.90;;;;;;5059657;28;20052;-57
2022/11/17 10:23:42;;;;;;;11.98;10.10;;;8.50;99.90;;;;;;5072188;28;20493;-54
2022/11/17 10:26:12;;;;;;;12.43;10.85;;;8.60;99.90;;;;;;5073062;28;20146;-53
2022/11/17 10:28:38;;;;;;;12.02;9.52;;;8.60;99.90;;;;;;5053279;28;20048;-55
2022/11/17 10:31:13;;;;;;;10.68;9.57;;;8.60;99.90;;;;;;5067184;28;20075;-55
2022/11/17 10:33:44;;;;;;;13.00;9.10;;;8.60;99.90;;;;;;5055201;28;20049;-53
2022/11/17 10:36:19;;;;;;;10.02;8.25;;;8.70;99.90;;;;;;5069399;28;20048;-57
2022/11/17 10:38:47;;;;;;;7.30;6.28;;;8.80;99.90;;;;;;5082599;28;20397;-54
2022/11/17 10:41:19;;;;;;;7.50;6.68;;;8.70;99.90;;;;;;5031260;28;20055;-56
2022/11/17 10:44:00;;;;;;;10.20;8.77;;;8.70;99.90;;;;;;5058995;28;20044;-55
2022/11/17 10:46:25;;;;;;;11.00;9.25;;;8.80;99.90;;;;;;5068359;28;20044;-56
2022/11/17 10:49:03;;;;;;;11.13;10.02;;;8.70;99.90;;;;;;5064786;28;20482;-56
2022/11/17 10:51:33;;;;;;;;;;;8.70;99.90;;;;;;5063920;28;20048;-58
2022/11/17 10:54:19;;;;;;;14.02;9.93;;;8.60;99.90;;;;;;5061503;28;20382;-55
2022/11/17 10:56:57;;;;;;;12.52;10.02;;;8.70;99.90;;;;;;5063649;28;20052;-53
2022/11/17 10:59:30;;;;;;;16.40;12.00;;;8.70;99.90;;;;;;5056254;28;20045;-51
2022/11/17 11:01:56;;;;;;;15.13;11.25;;;8.70;99.90;;;;;;5065861;28;20041;-54
2022/11/17 11:04:30;;;;;;;13.60;11.75;;;8.80;99.90;;;;;;5028542;28;20048;-55
2022/11/17 11:07:21;;;;;;;14.05;12.63;;;8.90;99.90;;;;;;5061712;28;20037;-55
2022/11/17 11:09:46;;;;;;;10.93;8.75;;;8.90;99.90;;;;;;5070714;28;20119;-51
2022/11/17 11:12:18;;;;;;;10.57;9.57;;;9.00;99.90;;;;;;5064100;28;20431;-54
2022/11/17 11:14:51;;;;;;;11.88;9.75;;;9.20;99.90;;;;;;5060073;28;20486;-55
2022/11/17 11:17:19;;;;;;;11.00;9.85;;;9.30;99.90;;;;;;5067178;28;20040;-51
2022/11/17 11:19:51;;;;;;;12.10;10.07;;;9.30;99.90;;;;;;5057052;28;20049;-53
2022/11/17 11:22:41;;;;;;;10.93;9.82;;;9.30;99.90;;;;;;5072738;28;20049;-54
2022/11/17 11:25:31;;;;;;;11.32;8.75;;;9.40;99.90;;;;;;5073122;28;20040;-56
2022/11/17 11:27:57;;;;;;;8.55;7.47;;;9.50;99.90;;;;;;5070449;28;20044;-52
2022/11/17 11:30:23;;;;;;;8.57;7.10;;;9.60;99.90;;;;;;5072974;28;20042;-56
2022/11/17 11:33:05;;;;;;;7.80;5.63;;;9.60;99.90;;;;;;5072924;28;20044;-55
2022/11/17 11:35:51;;;;;;;7.97;4.90;;;9.70;99.90;;;;;;5072531;28;20040;-55
2022/11/17 11:38:56;;;;;;;6.50;4.20;;;9.70;99.90;;;;;;5059743;28;20166;-54
2022/11/17 11:41:49;;;;;;;6.63;3.50;;;9.70;99.90;;;;;;5068033;28;20452;-55
2022/11/17 11:44:33;;;;;;;4.93;3.38;;;9.80;99.90;;;;;;5067139;28;20041;-56
2022/11/17 11:47:08;;;;;;;7.13;2.80;;;9.70;99.90;;;;;;5068584;28;20047;-51
2022/11/17 11:49:43;;;;;;;6.32;2.38;;;9.70;99.90;;;;;;5055895;28;20406;-55
2022/11/17 11:52:21;;;;;;;5.68;2.30;;;9.80;99.90;;;;;;5065613;28;20072;-56
2022/11/17 11:54:59;;;;;;;6.80;2.33;;;9.70;99.90;;;;;;5059179;28;20040;-54
2022/11/17 11:57:34;;;;;;;3.58;1.70;;;9.70;99.90;;;;;;5063712;28;20079;-55
2022/11/17 12:00:06;;;;;;;7.00;1.90;;;9.90;99.90;;;;;;5065240;28;21275;-53
2022/11/17 12:02:50;;;;;;;6.20;2.30;;;9.80;99.90;;;;;;5067308;28;20124;-55
2022/11/17 12:06:38;;;;;;;2.47;1.55;;;9.90;99.90;;;;;;5055787;28;20073;-55
2022/11/17 12:08:55;;;;;;;4.90;1.58;;;9.80;99.90;;;;;;5058762;28;20044;-54
2022/11/17 12:14:06;;;;;;;3.15;1.75;;;10.00;99.90;;;;;;5060188;28;20448;-52
2022/11/17 12:16:35;;;;;;;2.72;1.77;;;10.00;99.90;;;;;;5041268;28;20077;-54
2022/11/17 12:19:22;;;;;;;5.78;1.80;;;10.00;99.90;;;;;;5059868;28;20049;-54
2022/11/17 12:21:53;;;;;;;3.25;1.63;;;10.00;99.90;;;;;;5056654;28;20048;-53
2022/11/17 12:24:36;;;;;;;4.88;1.80;;;10.00;99.90;;;;;;5065682;28;20106;-54
2022/11/17 12:27:40;;;;;;;6.75;1.98;;;10.00;99.90;;;;;;5065322;28;20063;-55
2022/11/17 12:30:32;;;;;;;3.42;2.00;;;10.20;99.90;;;;;;5050119;28;20053;-55
2022/11/17 12:32:59;;;;;;;8.15;2.25;;;10.20;99.90;;;;;;5069575;28;20071;-53
2022/11/17 12:35:32;;;;;;;5.47;2.00;;;10.10;99.90;;;;;;5064918;28;20120;-55
2022/11/17 12:38:16;;;;;;;3.85;2.15;;;10.10;99.90;;;;;;5064296;28;20135;-56
2022/11/17 12:40:47;;;;;;;5.03;2.30;;;10.10;99.90;;;;;;5063765;28;20041;-55
2022/11/17 12:43:26;;;;;;;4.00;2.25;;;10.10;99.90;;;;;;5068796;28;20378;-55
2022/11/17 12:45:58;;;;;;;4.95;2.45;;;10.10;99.90;;;;;;5065304;28;20037;-55
2022/11/17 12:48:35;;;;;;;6.10;2.55;;;10.10;99.90;;;;;;5063963;28;20089;-51
2022/11/17 12:51:25;;;;;;;4.47;2.60;;;10.10;99.90;;;;;;5070094;28;20041;-52
2022/11/17 12:54:01;;;;;;;4.47;2.40;;;10.20;99.90;;;;;;5065407;28;20059;-54
2022/11/17 12:56:43;;;;;;;5.28;2.50;;;10.10;99.90;;;;;;5058539;28;20533;-52
2022/11/17 12:59:30;;;;;;;8.27;2.58;;;10.20;99.90;;;;;;5065782;28;20048;-53
2022/11/17 13:01:55;;;;;;;4.30;2.30;;;10.10;99.90;;;;;;5066975;28;20444;-53
2022/11/17 13:04:45;;;;;;;9.25;2.40;;;10.10;99.90;;;;;;5069179;28;20543;-55
2022/11/17 13:07:25;;;;;;;3.92;2.10;;;10.10;99.90;;;;;;5071314;28;20041;-53
2022/11/17 13:09:56;;;;;;;3.33;1.92;;;10.10;99.90;;;;;;5063302;28;20040;-55
2022/11/17 13:12:30;;;;;;;4.95;2.20;;;10.20;99.90;;;;;;5068205;28;20072;-55
2022/11/17 13:15:04;;;;;;;7.18;1.67;;;10.10;99.90;;;;;;5055410;28;20052;-53
2022/11/17 13:17:32;;;;;;;3.65;2.10;;;10.20;99.90;;;;;;5064008;28;20098;-55
2022/11/17 13:20:23;;;;;;;7.00;1.95;;;10.10;99.90;;;;;;5061013;28;20059;-53
2022/11/17 13:23:05;;;;;;;3.90;2.05;;;10.10;99.90;;;;;;5058408;28;20123;-54
2022/11/17 13:25:32;;;;;;;5.18;1.80;;;10.10;99.90;;;;;;5059739;28;20397;-55
2022/11/17 13:27:58;;;;;;;5.75;1.88;;;10.10;99.90;;;;;;5059537;28;20044;-55
2022/11/17 13:30:26;;;;;;;6.95;2.28;;;10.20;99.90;;;;;;5061018;28;20490;-53
2022/11/17 13:32:53;;;;;;;6.80;3.83;;;10.10;99.90;;;;;;5064437;28;20032;-52
2022/11/17 13:35:19;;;;;;;3.85;2.08;;;10.10;99.90;;;;;;5068905;28;20123;-55
2022/11/17 13:37:50;;;;;;;5.60;2.15;;;10.10;99.90;;;;;;5060432;28;20509;-51